Time;durP1;ratioP1;P1;durP2;ratioP2;P2;SDS_P1;SDS_P2;PMS_P1;PMS_P2;Temp;Humidity;BMP_temperature;BMP_pressure;BME280_temperature;BME280_humidity;BME280_pressure;Samples;Min_cycle;Max_cycle;Signal;HPM_P1;HPM_P2
2023/01/18 00:01:51;;;;;;;;;;;-0.10;99.90;;;;;;5036541;28;19952;-76
2023/01/18 00:04:17;;;;;;;;;;;-0.10;99.90;;;;;;5019543;28;19924;-76
2023/01/18 00:06:42;;;;;;;;;;;-0.10;99.90;;;;;;5054126;28;19909;-76
2023/01/18 00:09:08;;;;;;;;;;;-0.10;99.90;;;;;;5053779;28;20333;-76
2023/01/18 00:11:34;;;;;;;;;;;-0.10;99.90;;;;;;5054335;28;19959;-76
2023/01/18 00:14:01;;;;;;;;;;;0.00;99.90;;;;;;5054067;28;20280;-76
2023/01/18 00:16:29;;;;;;;;;;;0.00;99.90;;;;;;5035908;28;20292;-76
2023/01/18 00:18:58;;;;;;;;;;;0.00;99.90;;;;;;5053724;28;19939;-76
2023/01/18 00:21:25;;;;;;;;;;;0.10;99.90;;;;;;5035844;28;19908;-76
2023/01/18 00:23:51;;;;;;;;;;;0.10;99.90;;;;;;5053774;28;19990;-76
2023/01/18 00:26:17;;;;;;;;;;;0.10;99.90;;;;;;5053748;28;19909;-76
2023/01/18 00:28:42;;;;;;;;;;;0.10;99.90;;;;;;5019296;28;20369;-76
2023/01/18 00:31:18;;;;;;;;;;;0.10;99.90;;;;;;5053601;28;19913;-76
2023/01/18 00:33:45;;;;;;;;;;;0.20;99.90;;;;;;5053912;28;19909;-76
2023/01/18 00:36:11;;;;;;;;;;;0.20;99.90;;;;;;5035736;28;20364;-76
2023/01/18 00:38:37;;;;;;;;;;;0.20;99.90;;;;;;5053881;28;20430;-76
2023/01/18 00:41:02;;;;;;;;;;;0.20;99.90;;;;;;5035602;28;19909;-76
2023/01/18 00:43:37;;;;;;;;;;;0.20;99.90;;;;;;5057225;28;20556;-76
2023/01/18 00:46:04;;;;;;;;;;;0.20;99.90;;;;;;5058433;28;19913;-76
2023/01/18 00:48:29;;;;;;;;;;;0.20;99.90;;;;;;5057656;28;19916;-76
2023/01/18 00:50:55;;;;;;;;;;;0.20;99.90;;;;;;5057685;28;19913;-76
2023/01/18 00:53:20;;;;;;;;;;;0.20;99.90;;;;;;5039784;28;19913;-76
2023/01/18 00:55:46;;;;;;;;;;;0.20;99.90;;;;;;5040026;28;19913;-76
2023/01/18 00:58:12;;;;;;;;;;;0.10;99.90;;;;;;5057493;28;19916;-76
2023/01/18 01:00:37;;;;;;;;;;;0.10;99.90;;;;;;5057296;28;19928;-76
2023/01/18 01:03:03;;;;;;;;;;;0.10;99.90;;;;;;5057743;28;19958;-76
2023/01/18 01:08:17;;;;;;;;;;;0.10;99.90;;;;;;5057454;28;20395;-76
2023/01/18 01:10:47;;;;;;;;;;;0.10;99.90;;;;;;5057083;28;19960;-76
2023/01/18 01:26:55;;;;;;;;;;;0.00;99.90;;;;;;5042577;28;20387;-76
2023/01/18 01:29:21;;;;;;;;;;;0.00;99.90;;;;;;5039037;28;19913;-76
2023/01/18 01:31:46;;;;;;;;;;;0.00;99.90;;;;;;5057097;28;19934;-76
2023/01/18 01:34:12;;;;;;;;;;;0.00;99.90;;;;;;5056997;28;19996;-76
2023/01/18 01:36:38;;;;;;;;;;;-0.10;99.90;;;;;;5039738;28;19913;-76
2023/01/18 01:39:05;;;;;;;;;;;-0.10;99.90;;;;;;5039101;28;20273;-76
2023/01/18 01:41:33;;;;;;;;;;;-0.10;99.90;;;;;;5056705;28;20280;-76
2023/01/18 01:44:03;;;;;;;;;;;-0.10;99.90;;;;;;5056603;28;20408;-76
2023/01/18 01:46:33;;;;;;;;;;;-0.20;99.90;;;;;;5056607;28;19996;-76
2023/01/18 01:49:14;;;;;;;;;;;-0.20;99.90;;;;;;5056571;28;19917;-76
2023/01/18 01:51:44;;;;;;;;;;;-0.30;99.90;;;;;;5056417;28;19909;-76
2023/01/18 01:54:17;;;;;;;;;;;-0.40;99.90;;;;;;5038023;28;19909;-76
2023/01/18 01:56:43;;;;;;;;;;;-0.50;99.90;;;;;;5056946;28;19962;-76
2023/01/18 01:59:09;;;;;;;;;;;-0.50;99.90;;;;;;5056514;28;20372;-76
2023/01/18 02:01:36;;;;;;;;;;;-0.50;99.90;;;;;;5021835;28;19920;-76
2023/01/18 02:04:02;;;;;;;;;;;-0.60;99.90;;;;;;5056026;28;19909;-76
2023/01/18 02:06:32;;;;;;;;;;;-0.60;99.90;;;;;;5056308;28;19936;-76
2023/01/18 02:08:59;;;;;;;;;;;-0.70;99.90;;;;;;5038146;28;19919;-76
2023/01/18 02:11:25;;;;;;;;;;;-0.70;99.90;;;;;;5056063;28;19953;-76
2023/01/18 02:13:50;;;;;;;;;;;-0.70;99.90;;;;;;5055437;28;19917;-76
2023/01/18 02:16:31;;;;;;;;;;;-0.60;99.90;;;;;;5037959;28;19962;-76
2023/01/18 02:19:01;;;;;;;;;;;-0.60;99.90;;;;;;5056193;28;19931;-76
2023/01/18 02:21:33;;;;;;;;;;;-0.60;99.90;;;;;;5055528;28;19909;-76
2023/01/18 02:24:17;;;;;;;;;;;-0.50;99.90;;;;;;5056132;28;20321;-76
2023/01/18 02:26:48;;;;;;;;;;;-0.60;99.90;;;;;;5054823;28;20038;-76
2023/01/18 02:29:16;;;;;;;;;;;-0.60;99.90;;;;;;5037568;28;19920;-76
2023/01/18 02:32:02;;;;;;;;;;;-0.50;99.90;;;;;;5055640;28;20300;-76
2023/01/18 02:34:47;;;;;;;;;;;-0.50;99.90;;;;;;5055085;28;19908;-76
2023/01/18 02:37:25;;;;;;;;;;;-0.50;99.90;;;;;;5055650;28;20357;-76
2023/01/18 02:39:57;;;;;;;;;;;-0.50;99.90;;;;;;5037573;28;19909;-76
2023/01/18 02:48:15;;;;;;;;;;;-0.50;99.90;;;;;;5054561;28;20452;-76
2023/01/18 02:50:41;;;;;;;;;;;-0.50;99.90;;;;;;5055350;28;19909;-76
2023/01/18 02:53:11;;;;;;;;;;;-0.60;99.90;;;;;;5037715;28;20015;-76
2023/01/18 02:55:39;;;;;;;;;;;-0.60;99.90;;;;;;5055918;28;19912;-76
2023/01/18 02:58:23;;;;;;;;;;;-0.60;99.90;;;;;;5055904;28;19915;-76
2023/01/18 03:00:51;;;;;;;;;;;-0.60;99.90;;;;;;5054655;28;20389;-76
2023/01/18 03:03:18;;;;;;;;;;;-0.60;99.90;;;;;;5055244;28;19908;-76
2023/01/18 03:05:46;;;;;;;;;;;-0.50;99.90;;;;;;5036524;28;19909;-76
2023/01/18 03:08:23;;;;;;;;;;;-0.50;99.90;;;;;;5055472;28;19913;-76
2023/01/18 03:10:56;;;;;;;;;;;-0.60;99.90;;;;;;5055384;28;19955;-76
2023/01/18 03:13:41;;;;;;;;;;;-0.50;99.90;;;;;;5055388;28;19909;-76
2023/01/18 03:16:30;;;;;;;;;;;-0.60;99.90;;;;;;5054366;28;20392;-76
2023/01/18 03:19:00;;;;;;;;;;;-0.50;99.90;;;;;;5055889;28;19908;-76
2023/01/18 03:21:41;;;;;;;;;;;-0.50;99.90;;;;;;5054830;28;20443;-77
2023/01/18 03:24:07;;;;;;;;;;;-0.50;99.90;;;;;;5055058;28;20284;-76
2023/01/18 03:26:35;;;;;;;;;;;-0.60;99.90;;;;;;5054931;28;19908;-77
2023/01/18 03:34:39;;;;;;;;;;;-0.50;99.90;;;;;;5055154;28;19915;-76
2023/01/18 03:37:10;;;;;;;;;;;-0.50;99.90;;;;;;5054718;28;20273;-76
2023/01/18 03:39:38;;;;;;;;;;;-0.50;99.90;;;;;;5054988;28;19909;-76
2023/01/18 03:42:09;;;;;;;;;;;-0.50;99.90;;;;;;5054482;28;19916;-76
2023/01/18 03:44:37;;;;;;;;;;;-0.50;99.90;;;;;;5036586;28;19909;-77
2023/01/18 03:47:04;;;;;;;;;;;-0.50;99.90;;;;;;5054371;28;19913;-77
2023/01/18 03:49:31;;;;;;;;;;;-0.50;99.90;;;;;;5054244;28;19919;-77
2023/01/18 03:52:15;;;;;;;;;;;-0.50;99.90;;;;;;5054317;28;20269;-77
2023/01/18 03:54:43;;;;;;;;;;;-0.50;99.90;;;;;;5054602;28;19908;-77
2023/01/18 03:57:16;;;;;;;;;;;-0.40;99.90;;;;;;5054219;28;19912;-77
2023/01/18 03:59:42;;;;;;;;;;;-0.40;99.90;;;;;;5036158;28;19956;-77
2023/01/18 04:02:08;;;;;;;;;;;-0.40;99.90;;;;;;5054701;28;20383;-77
2023/01/18 04:04:34;;;;;;;;;;;-0.40;99.90;;;;;;5054438;28;19979;-77
2023/01/18 04:06:59;;;;;;;;;;;-0.40;99.90;;;;;;5036805;28;19995;-77
2023/01/18 04:09:25;;;;;;;;;;;-0.40;99.90;;;;;;5054360;28;20428;-77
2023/01/18 04:11:51;;;;;;;;;;;-0.40;99.90;;;;;;5036763;28;19909;-77
2023/01/18 04:14:16;;;;;;;;;;;-0.40;99.90;;;;;;5036661;28;19913;-77
2023/01/18 04:16:42;;;;;;;;;;;-0.40;99.90;;;;;;5054909;28;19916;-77
2023/01/18 04:19:07;;;;;;;;;;;-0.40;99.90;;;;;;5054747;28;20285;-77
2023/01/18 04:21:37;;;;;;;;;;;-0.40;99.90;;;;;;5036731;28;20278;-77
2023/01/18 04:24:03;;;;;;;;;;;-0.30;99.90;;;;;;5054776;28;19912;-77
2023/01/18 04:26:28;;;;;;;;;;;-0.30;99.90;;;;;;5055007;28;19919;-77
2023/01/18 04:28:54;;;;;;;;;;;-0.30;99.90;;;;;;5054848;28;19913;-77
2023/01/18 04:31:20;;;;;;;;;;;-0.30;99.90;;;;;;5054783;28;19966;-78
2023/01/18 04:33:50;;;;;;;;;;;-0.30;99.90;;;;;;5054562;28;19999;-77
2023/01/18 04:36:16;;;;;;;;;;;-0.30;99.90;;;;;;5054334;28;20373;-77
2023/01/18 04:38:42;;;;;;;;;;;-0.30;99.90;;;;;;5054392;28;20319;-78
2023/01/18 04:41:07;;;;;;;;;;;-0.30;99.90;;;;;;5054307;28;19966;-78
2023/01/18 04:43:33;;;;;;;;;;;-0.30;99.90;;;;;;5053767;28;19970;-78
2023/01/18 04:45:58;;;;;;;;;;;-0.30;99.90;;;;;;5054620;28;20051;-78
2023/01/18 04:48:24;;;;;;;;;;;-0.30;99.90;;;;;;5035916;28;19921;-78
2023/01/18 04:50:50;;;;;;;;;;;-0.30;99.90;;;;;;5035967;28;19909;-77
2023/01/18 04:53:16;;;;;;;;;;;-0.30;99.90;;;;;;5054556;28;19909;-77
2023/01/18 04:55:42;;;;;;;;;;;-0.30;99.90;;;;;;5036772;28;20435;-77
2023/01/18 04:58:08;;;;;;;;;;;-0.30;99.90;;;;;;5036722;28;19909;-78
2023/01/18 05:00:33;;;;;;;;;;;-0.30;99.90;;;;;;5049687;28;19980;-78
2023/01/18 05:03:01;;;;;;;;;;;-0.30;99.90;;;;;;5053830;28;20580;-78
2023/01/18 05:05:27;;;;;;;;;;;-0.30;99.90;;;;;;5035671;28;19919;-77
2023/01/18 05:07:52;;;;;;;;;;;-0.30;99.90;;;;;;5036917;28;19966;-77
2023/01/18 05:10:18;;;;;;;;;;;-0.30;99.90;;;;;;5037743;28;19913;-78
2023/01/18 05:12:44;;;;;;;;;;;-0.30;99.90;;;;;;5055839;28;19913;-78
2023/01/18 05:15:09;;;;;;;;;;;-0.30;99.90;;;;;;5055236;28;19919;-77
2023/01/18 05:17:35;;;;;;;;;;;-0.30;99.90;;;;;;5055480;28;19909;-78
2023/01/18 05:20:01;;;;;;;;;;;-0.30;99.90;;;;;;5036634;28;19917;-78
2023/01/18 05:22:27;;;;;;;;;;;-0.30;99.90;;;;;;5054641;28;19912;-78
2023/01/18 05:24:53;;;;;;;;;;;-0.30;99.90;;;;;;5057902;28;19936;-78
2023/01/18 05:27:19;;;;;;;;;;;-0.30;99.90;;;;;;5060699;28;19917;-78
2023/01/18 05:29:49;;;;;;;;;;;-0.30;99.90;;;;;;5062113;28;19920;-78
2023/01/18 05:32:15;;;;;;;;;;;-0.30;99.90;;;;;;5059089;28;19948;-77
2023/01/18 05:34:41;;;;;;;;;;;-0.30;99.90;;;;;;5058242;28;19919;-78
2023/01/18 05:37:06;;;;;;;;;;;-0.30;99.90;;;;;;5040596;28;19935;-77
2023/01/18 05:39:32;;;;;;;;;;;-0.30;99.90;;;;;;5037919;28;19917;-77
2023/01/18 05:41:58;;;;;;;;;;;-0.30;99.90;;;;;;5066504;28;19916;-78
2023/01/18 05:44:23;;;;;;;;;;;-0.30;99.90;;;;;;5063521;28;20339;-78
2023/01/18 05:46:49;;;;;;;;;;;-0.30;99.90;;;;;;5063111;28;19917;-77
2023/01/18 05:49:14;;;;;;;;;;;-0.30;99.90;;;;;;5055284;28;19928;-77
2023/01/18 05:51:40;;;;;;;;;;;-0.30;99.90;;;;;;5056791;28;19924;-78
2023/01/18 05:54:06;;;;;;;;;;;-0.30;99.90;;;;;;5054847;28;20043;-77
2023/01/18 05:56:32;;;;;;;;;;;-0.30;99.90;;;;;;5047262;28;19917;-77
2023/01/18 05:58:57;;;;;;;;;;;-0.30;99.90;;;;;;5058397;28;19958;-78
2023/01/18 06:01:23;;;;;;;;;;;-0.30;99.90;;;;;;5077392;28;19921;-77
2023/01/18 06:03:48;;;;;;;;;;;-0.30;99.90;;;;;;5077509;28;20358;-78
2023/01/18 06:06:15;;;;;;;;;;;-0.30;99.90;;;;;;5077423;28;19908;-78
2023/01/18 06:08:41;;;;;;;;;;;-0.30;99.90;;;;;;5059606;28;19921;-77
2023/01/18 06:11:07;;;;;;;;;;;-0.30;99.90;;;;;;5077525;28;19913;-78
2023/01/18 06:13:32;;;;;;;;;;;-0.20;99.90;;;;;;5075842;28;20376;-78
2023/01/18 06:15:58;;;;;;;;;;;-0.30;99.90;;;;;;5056494;28;19909;-78
2023/01/18 06:18:25;;;;;;;;;;;-0.20;99.90;;;;;;5057160;28;19909;-78
2023/01/18 06:20:56;;;;;;;;;;;-0.30;99.90;;;;;;5056868;28;19915;-78
2023/01/18 06:23:21;;;;;;;;;;;-0.30;99.90;;;;;;5056087;28;19909;-77
2023/01/18 06:25:47;;;;;;;;;;;-0.30;99.90;;;;;;5054470;28;19919;-77
2023/01/18 06:28:12;;;;;;;;;;;-0.30;99.90;;;;;;5055662;28;20387;-77
2023/01/18 06:30:38;;;;;;;;;;;-0.30;99.90;;;;;;5055773;28;19920;-77
2023/01/18 06:33:05;;;;;;;;;;;-0.30;99.90;;;;;;5055638;28;19913;-77
2023/01/18 06:35:35;;;;;;;;;;;-0.30;99.90;;;;;;5055909;28;19919;-77
2023/01/18 06:38:01;;;;;;;;;;;-0.30;99.90;;;;;;5055752;28;20380;-77
2023/01/18 06:40:27;;;;;;;;;;;-0.30;99.90;;;;;;5055464;28;19916;-77
2023/01/18 06:42:53;;;;;;;;;;;-0.30;99.90;;;;;;5055815;28;19909;-77
2023/01/18 06:45:20;;;;;;;;;;;-0.30;99.90;;;;;;5055513;28;19913;-77
2023/01/18 06:47:49;;;;;;;;;;;-0.30;99.90;;;;;;5055286;28;19916;-77
2023/01/18 06:50:15;;;;;;;;;;;-0.30;99.90;;;;;;5055327;28;19923;-77
2023/01/18 06:52:42;;;;;;;;;;;-0.30;99.90;;;;;;5055293;28;19912;-77
2023/01/18 06:55:08;;;;;;;;;;;-0.30;99.90;;;;;;5055338;28;19920;-77
2023/01/18 06:57:33;;;;;;;;;;;-0.30;99.90;;;;;;5055655;28;19909;-77
2023/01/18 07:00:00;;;;;;;;;;;-0.40;99.90;;;;;;5055139;28;20002;-77
2023/01/18 07:02:27;;;;;;;;;;;-0.40;99.90;;;;;;5055041;28;19913;-77
2023/01/18 07:04:53;;;;;;;;;;;-0.40;99.90;;;;;;5055202;28;20343;-77
2023/01/18 07:07:18;;;;;;;;;;;-0.40;99.90;;;;;;5054965;28;19966;-77
2023/01/18 07:09:44;;;;;;;;;;;-0.40;99.90;;;;;;5036687;28;19917;-77
2023/01/18 07:12:10;;;;;;;;;;;-0.50;99.90;;;;;;5057849;28;19920;-80
2023/01/18 07:14:35;;;;;;;;;;;-0.50;99.90;;;;;;5058380;28;19897;-80
2023/01/18 07:17:01;;;;;;;;;;;-0.50;99.90;;;;;;5057893;28;19913;-80
2023/01/18 07:19:27;;;;;;;;;;;-0.50;99.90;;;;;;5057470;28;19948;-79
2023/01/18 07:21:52;;;;;;;;;;;-0.50;99.90;;;;;;5057727;28;20341;-79
2023/01/18 07:24:18;;;;;;;;;;;-0.50;99.90;;;;;;5058050;28;19913;-79
2023/01/18 07:26:44;;;;;;;;;;;-0.40;99.90;;;;;;5057940;28;19920;-79
2023/01/18 07:29:09;;;;;;;;;;;-0.40;99.90;;;;;;5039785;28;19944;-79
2023/01/18 07:31:37;;;;;;;;;;;-0.40;99.90;;;;;;5057925;28;19913;-79
2023/01/18 07:34:02;;;;;;;;;;;-0.40;99.90;;;;;;5058092;28;19917;-79
2023/01/18 07:36:28;;;;;;;;;;;-0.40;99.90;;;;;;5058228;28;20008;-79
2023/01/18 07:38:54;;;;;;;;;;;-0.40;99.90;;;;;;5058386;28;19913;-78
2023/01/18 07:41:21;;;;;;;;;;;-0.40;99.90;;;;;;5058107;28;19966;-79
2023/01/18 07:43:47;;;;;;;;;;;-0.30;99.90;;;;;;5058380;28;19908;-79
2023/01/18 07:46:24;;;;;;;;;;;-0.30;99.90;;;;;;5058720;28;19954;-78
2023/01/18 07:48:51;;;;;;;;;;;-0.30;99.90;;;;;;5058389;28;20019;-78
2023/01/18 07:51:17;;;;;;;;;;;-0.40;99.90;;;;;;5057472;28;19909;-79
2023/01/18 07:53:43;;;;;;;;;;;-0.40;99.90;;;;;;5057960;28;19913;-79
2023/01/18 07:56:13;;;;;;;;;;;-0.30;99.90;;;;;;5057799;28;19909;-78
2023/01/18 07:58:39;;;;;;;;;;;-0.30;99.90;;;;;;5040086;28;19908;-79
2023/01/18 08:01:07;;;;;;;;;;;-0.30;99.90;;;;;;5065565;28;20015;-80
2023/01/18 08:03:33;;;;;;;;;;;-0.20;99.90;;;;;;5064566;28;19909;-79
2023/01/18 08:05:59;;;;;;;;;;;-0.20;99.90;;;;;;5062231;28;19916;-79
2023/01/18 08:08:26;;;;;;;;;;;-0.10;99.90;;;;;;5060523;28;20003;-79
2023/01/18 08:10:55;;;;;;;;;;;-0.10;99.90;;;;;;5058918;28;19909;-78
2023/01/18 08:13:21;;;;;;;;;;;0.00;99.90;;;;;;5059452;28;19952;-80
2023/01/18 08:15:47;;;;;;;;;;;0.00;99.90;;;;;;5040203;28;19909;-79
2023/01/18 08:18:13;;;;;;;;;;;0.10;99.90;;;;;;5039589;28;19915;-78
2023/01/18 08:20:41;;;;;;;;;;;0.10;99.90;;;;;;5040010;28;19912;-78
2023/01/18 08:23:07;;;;;;;;;;;0.10;99.90;;;;;;5057709;28;19908;-79
2023/01/18 08:25:32;;;;;;;;;;;0.10;99.90;;;;;;5039712;28;20289;-78
2023/01/18 08:27:59;;;;;;;;;;;0.10;99.90;;;;;;5058166;28;19917;-77
2023/01/18 08:30:26;;;;;;;;;;;0.20;99.90;;;;;;5039375;28;19967;-78
2023/01/18 08:32:56;;;;;;;;;;;0.30;99.90;;;;;;5058006;28;19909;-78
2023/01/18 08:35:22;;;;;;;;;;;0.30;99.90;;;;;;5057194;28;20365;-79
2023/01/18 08:37:48;;;;;;;;;;;0.30;99.90;;;;;;5039069;28;19951;-78
2023/01/18 08:40:14;;;;;;;;;;;0.30;99.90;;;;;;5056884;28;19909;-78
2023/01/18 08:42:39;;;;;;;;;;;0.30;99.90;;;;;;5057209;28;20403;-78
2023/01/18 08:45:05;;;;;;;;;;;0.40;99.90;;;;;;5039251;28;19913;-78
2023/01/18 08:47:31;;;;;;;;;;;0.40;99.90;;;;;;5056803;28;20296;-78
2023/01/18 08:49:56;;;;;;;;;;;0.50;99.90;;;;;;5057144;28;19913;-78
2023/01/18 08:52:22;;;;;;;;;;;0.50;99.90;;;;;;5057391;28;20402;-79
2023/01/18 08:54:47;;;;;;;;;;;0.50;99.90;;;;;;5057657;28;19951;-78
2023/01/18 08:57:13;;;;;;;;;;;0.50;99.90;;;;;;5057516;28;19919;-78
2023/01/18 08:59:39;;;;;;;;;;;0.60;99.90;;;;;;5039577;28;19916;-78
2023/01/18 09:02:04;;;;;;;;;;;0.60;99.90;;;;;;5057791;28;19956;-78
2023/01/18 09:04:30;;;;;;;;;;;0.60;99.90;;;;;;5042999;28;20007;-79
2023/01/18 09:06:55;;;;;;;;;;;0.50;99.90;;;;;;5060947;28;19913;-78
2023/01/18 09:09:21;;;;;;;;;;;0.50;99.90;;;;;;5060078;28;19952;-78
2023/01/18 09:11:49;;;;;;;;;;;0.50;99.90;;;;;;5060240;28;19963;-78
2023/01/18 09:14:15;;;;;;;;;;;0.50;99.90;;;;;;5060217;28;19918;-78
2023/01/18 09:16:40;;;;;;;;;;;0.50;99.90;;;;;;5042478;28;19964;-78
2023/01/18 09:19:06;;;;;;;;;;;0.50;99.90;;;;;;5060458;28;20350;-78
2023/01/18 09:21:33;;;;;;;;;;;0.60;99.90;;;;;;5058424;28;19913;-77
2023/01/18 09:23:58;;;;;;;;;;;0.60;99.90;;;;;;5058603;28;20414;-77
2023/01/18 09:26:24;;;;;;;;;;;0.60;99.90;;;;;;5040461;28;19913;-77
2023/01/18 09:28:51;;;;;;;;;;;0.70;99.90;;;;;;5058349;28;19923;-77
2023/01/18 09:31:17;;;;;;;;;;;0.80;99.90;;;;;;5058653;28;19912;-77
2023/01/18 09:33:43;;;;;;;;;;;0.80;99.90;;;;;;5058768;28;19916;-77
2023/01/18 09:36:09;;;;;;;;;;;0.90;99.90;;;;;;5040262;28;19919;-77
2023/01/18 09:38:35;;;;;;;;;;;0.90;99.90;;;;;;5058244;28;19913;-77
2023/01/18 09:41:02;;;;;;;;;;;1.00;99.90;;;;;;5059186;28;19932;-77
2023/01/18 09:43:42;;;;;;;;;;;1.10;99.90;;;;;;5059421;28;20054;-78
2023/01/18 09:46:17;;;;;;;;;;;1.20;99.90;;;;;;5060064;28;19916;-78
2023/01/18 09:48:43;;;;;;;;;;;1.20;99.90;;;;;;5061855;28;19920;-78
2023/01/18 09:51:19;;;;;;;;;;;1.30;99.90;;;;;;5041438;28;19917;-77
2023/01/18 09:53:53;;;;;;;;;;;1.40;99.90;;;;;;5061451;28;20369;-78
2023/01/18 09:56:27;;;;;;;;;;;1.50;99.90;;;;;;5041860;28;20081;-78
2023/01/18 09:58:53;;;;;;;;;;;1.60;99.90;;;;;;5061576;28;19908;-78
2023/01/18 10:01:21;;;;;;;;;;;1.70;99.90;;;;;;5043797;28;19920;-78
2023/01/18 10:03:50;;;;;;;;;;;1.70;99.90;;;;;;5061335;28;19913;-78
2023/01/18 10:06:24;;;;;;;;;;;1.80;99.90;;;;;;5060899;28;20345;-78
2023/01/18 10:08:59;;;;;;;;;;;1.90;99.90;;;;;;5060338;28;19916;-78
2023/01/18 10:11:34;;;;;;;;;;;2.00;99.90;;;;;;5060072;28;19931;-78
2023/01/18 10:14:11;;;;;;;;;;;2.10;99.90;;;;;;5060912;28;19954;-78
2023/01/18 10:16:37;;;;;;;;;;;2.10;99.90;;;;;;5042999;28;19909;-78
2023/01/18 10:19:09;;;;;;;;;;;2.10;99.90;;;;;;5070729;28;19920;-78
2023/01/18 10:21:40;;;;;;;;;;;2.20;99.90;;;;;;5066078;28;19916;-78
2023/01/18 10:24:06;;;;;;;;;;;2.20;99.90;;;;;;5062954;28;19916;-78
2023/01/18 10:26:34;;;;;;;;;;;2.40;99.90;;;;;;5062629;28;19909;-78
2023/01/18 10:29:14;;;;;;;;;;;2.40;99.90;;;;;;5060780;28;20427;-78
2023/01/18 10:31:57;;;;;;;;;;;2.50;99.90;;;;;;5059699;28;19920;-78
2023/01/18 10:34:25;;;;;;;;;;;2.60;99.90;;;;;;5060303;28;20008;-78
2023/01/18 10:36:56;;;;;;;;;;;2.60;99.90;;;;;;5058914;28;19893;-78
2023/01/18 10:39:56;;;;;;;;;;;2.70;99.90;;;;;;5059474;28;19944;-78
2023/01/18 10:42:23;;;;;;;;;;;2.70;99.90;;;;;;5036269;28;19909;-79
2023/01/18 10:44:49;;;;;;;;;;;2.80;99.90;;;;;;5058824;28;19995;-79
2023/01/18 10:47:15;;;;;;;;;;;2.80;99.90;;;;;;5058383;28;19919;-78
2023/01/18 10:49:42;;;;;;;;;;;2.90;99.90;;;;;;5057681;28;20288;-78
2023/01/18 10:52:26;;;;;;;;;;;2.90;99.90;;;;;;5058376;28;19947;-78
2023/01/18 10:55:00;;;;;;;;;;;2.90;99.90;;;;;;5058728;28;19909;-78
2023/01/18 10:57:28;;;;;;;;;;;2.90;99.90;;;;;;5057986;28;19909;-78
2023/01/18 10:59:55;;;;;;;;;;;2.80;99.90;;;;;;5058078;28;20392;-78
2023/01/18 11:02:23;;;;;;;;;;;2.70;99.90;;;;;;5058155;28;20368;-78
2023/01/18 11:04:57;;;;;;;;;;;2.60;99.90;;;;;;5057001;28;19916;-78
2023/01/18 11:07:24;;;;;;;;;;;2.50;99.90;;;;;;5057806;28;19915;-79
2023/01/18 11:09:54;;;;;;;;;;;2.50;99.90;;;;;;5057617;28;19954;-78
2023/01/18 11:12:41;;;;;;;;;;;2.60;99.90;;;;;;5057358;28;19917;-78
2023/01/18 11:15:13;;;;;;;;;;;2.60;99.90;;;;;;5058755;28;19909;-78
2023/01/18 11:17:39;;;;;;;;;;;2.60;99.90;;;;;;5058079;28;19915;-78
2023/01/18 11:20:05;;;;;;;;;;;2.70;99.90;;;;;;5056458;28;20007;-78
2023/01/18 11:22:32;;;;;;;;;;;2.70;99.90;;;;;;5055947;28;19912;-78
2023/01/18 11:24:58;;;;;;;;;;;2.70;99.90;;;;;;5055695;28;20283;-78
2023/01/18 11:27:24;;;;;;;;;;;2.70;99.90;;;;;;5038130;28;19912;-78
2023/01/18 11:29:49;;;;;;;;;;;2.70;99.90;;;;;;5056338;28;19956;-78
2023/01/18 11:32:22;;;;;;;;;;;2.70;99.90;;;;;;5056940;28;19920;-78
2023/01/18 11:34:58;;;;;;;;;;;2.70;99.90;;;;;;5056537;28;19915;-79
2023/01/18 11:37:24;;;;;;;;;;;2.80;99.90;;;;;;5038248;28;19913;-78
2023/01/18 11:39:49;;;;;;;;;;;2.80;99.90;;;;;;5038914;28;19954;-78
2023/01/18 11:42:33;;;;;;;;;;;2.90;99.90;;;;;;5038993;28;19920;-78
2023/01/18 11:45:03;;;;;;;;;;;2.90;99.90;;;;;;5038456;28;20526;-78
2023/01/18 11:47:41;;;;;;;;;;;3.00;99.90;;;;;;5038147;28;19933;-78
2023/01/18 11:50:15;;;;;;;;;;;3.10;99.90;;;;;;5055781;28;19915;-77
2023/01/18 11:52:46;;;;;;;;;;;3.10;99.90;;;;;;5037809;28;19908;-78
2023/01/18 11:55:22;;;;;;;;;;;3.10;99.90;;;;;;5038729;28;20368;-78
2023/01/18 11:57:48;;;;;;;;;;;3.10;99.90;;;;;;5056025;28;19913;-78
2023/01/18 12:00:14;;;;;;;;;;;3.00;99.90;;;;;;5038700;28;19928;-78
2023/01/18 12:02:46;;;;;;;;;;;3.00;99.90;;;;;;5056546;28;19917;-78
2023/01/18 12:05:37;;;;;;;;;;;3.00;99.90;;;;;;5038581;28;19916;-78
2023/01/18 12:08:14;;;;;;;;;;;3.00;99.90;;;;;;5038401;28;20296;-78
2023/01/18 12:10:49;;;;;;;;;;;3.00;99.90;;;;;;5039698;28;19912;-79
2023/01/18 12:13:31;;;;;;;;;;;3.10;99.90;;;;;;5056595;28;20000;-78
2023/01/18 12:16:00;;;;;;;;;;;3.10;99.90;;;;;;5056929;28;20289;-78
2023/01/18 12:18:44;;;;;;;;;;;3.10;99.90;;;;;;5057649;28;19958;-79
2023/01/18 12:21:17;;;;;;;;;;;3.10;99.90;;;;;;5057034;28;19919;-78
2023/01/18 12:24:02;;;;;;;;;;;3.10;99.90;;;;;;5039042;28;19909;-78
2023/01/18 12:26:32;;;;;;;;;;;3.00;99.90;;;;;;5056239;28;19951;-78
2023/01/18 12:28:57;;;;;;;;;;;3.10;99.90;;;;;;5056596;28;19913;-78
2023/01/18 12:31:26;;;;;;;;;;;3.10;99.90;;;;;;5038609;28;19915;-78
2023/01/18 12:34:02;;;;;;;;;;;3.10;99.90;;;;;;5038446;28;19908;-78
2023/01/18 12:36:31;;;;;;;;;;;3.20;99.90;;;;;;5056695;28;19909;-78
2023/01/18 12:38:58;;;;;;;;;;;3.20;99.90;;;;;;5042588;28;19909;-78
2023/01/18 12:41:40;;;;;;;;;;;3.20;99.90;;;;;;5060692;28;19952;-78
2023/01/18 12:44:05;;;;;;;;;;;3.20;99.90;;;;;;5042782;28;19909;-78
2023/01/18 12:46:39;;;;;;;;;;;3.10;99.90;;;;;;5060168;28;19909;-78
2023/01/18 12:49:17;;;;;;;;;;;2.90;99.90;;;;;;5060026;28;19913;-78
2023/01/18 12:51:48;;;;;;;;;;;2.80;99.90;;;;;;5060108;28;19909;-78
2023/01/18 12:54:31;;;;;;;;;;;2.80;99.90;;;;;;5060674;28;19909;-78
2023/01/18 12:56:58;;;;;;;;;;;2.70;99.90;;;;;;5060835;28;19916;-78
2023/01/18 12:59:46;;;;;;;;;;;2.70;99.90;;;;;;5059131;28;19920;-77
2023/01/18 13:02:21;;;;;;;;;;;2.70;99.90;;;;;;5059055;28;19920;-77
2023/01/18 13:04:52;;;;;;;;;;;2.60;99.90;;;;;;5058345;28;19916;-77
2023/01/18 13:07:21;;;;;;;;;;;2.60;99.90;;;;;;5058749;28;20254;-77
2023/01/18 13:09:48;;;;;;;;;;;2.60;99.90;;;;;;5057791;28;19963;-77
2023/01/18 13:12:14;;;;;;;;;;;2.60;99.90;;;;;;5058140;28;19956;-77
2023/01/18 13:14:47;;;;;;;;;;;2.60;99.90;;;;;;5058240;28;19920;-77
2023/01/18 13:17:18;;;;;;;;;;;2.60;99.90;;;;;;5058431;28;19919;-77
2023/01/18 13:19:53;;;;;;;;;;;2.50;99.90;;;;;;5058676;28;20011;-77
2023/01/18 13:22:27;;;;;;;;;;;2.50;99.90;;;;;;5059138;28;19909;-77
2023/01/18 13:24:52;;;;;;;;;;;2.50;99.90;;;;;;5058892;28;19909;-77
2023/01/18 13:27:18;;;;;;;;;;;2.50;99.90;;;;;;5040630;28;20249;-77
2023/01/18 13:29:44;;;;;;;;;;;2.50;99.90;;;;;;5058948;28;20447;-77
2023/01/18 13:32:20;;;;;;;;;;;2.50;99.90;;;;;;5058660;28;20292;-77
2023/01/18 13:34:54;;;;;;;;;;;2.50;99.90;;;;;;5059265;28;19951;-77
2023/01/18 13:37:44;;;;;;;;;;;2.50;99.90;;;;;;5041813;28;20416;-77
2023/01/18 13:40:20;;;;;;;;;;;2.40;99.90;;;;;;5054404;28;20379;-77
2023/01/18 13:42:46;;;;;;;;;;;2.40;99.90;;;;;;5059087;28;19915;-76
2023/01/18 13:45:15;;;;;;;;;;;2.40;99.90;;;;;;5059341;28;19913;-77
2023/01/18 13:47:45;;;;;;;;;;;2.40;99.90;;;;;;5059071;28;19958;-76
2023/01/18 13:50:38;;;;;;;;;;;2.50;99.90;;;;;;5040197;28;20420;-76
2023/01/18 13:53:13;;;;;;;;;;;2.50;99.90;;;;;;5060312;28;19931;-76
2023/01/18 13:55:45;;;;;;;;;;;2.50;99.90;;;;;;5059320;28;19909;-76
2023/01/18 13:58:19;;;;;;;;;;;2.50;99.90;;;;;;5058595;28;19932;-76
2023/01/18 14:00:46;;;;;;;;;;;2.50;99.90;;;;;;5041894;28;19917;-76
2023/01/18 14:03:15;;;;;;;;;;;2.40;99.90;;;;;;5059476;28;20000;-76
2023/01/18 14:05:44;;;;;;;;;;;2.40;99.90;;;;;;5059509;28;20003;-76
2023/01/18 14:08:17;;;;;;;;;;;2.40;99.90;;;;;;5059249;28;19921;-76
2023/01/18 14:10:46;;;;;;;;;;;2.30;99.90;;;;;;5059693;28;19909;-76
2023/01/18 14:13:16;;;;;;;;;;;2.20;99.90;;;;;;5059669;28;20284;-76
2023/01/18 14:15:42;;;;;;;;;;;2.20;99.90;;;;;;5041593;28;19952;-75
2023/01/18 14:18:16;;;;;;;;;;;2.20;99.90;;;;;;5059561;28;19916;-76
2023/01/18 14:21:00;;;;;;;;;;;2.20;99.90;;;;;;5060609;28;19913;-76
2023/01/18 14:23:29;;;;;;;;;;;2.20;99.90;;;;;;5060331;28;20320;-76
2023/01/18 14:26:04;;;;;;;;;;;2.20;99.90;;;;;;5060563;28;19959;-76
2023/01/18 14:28:35;;;;;;;;;;;2.10;99.90;;;;;;5059500;28;20011;-76
2023/01/18 14:31:02;;;;;;;;;;;2.00;99.90;;;;;;5059722;28;19909;-75
2023/01/18 14:33:31;;;;;;;;;;;2.00;99.90;;;;;;5059217;28;19909;-75
2023/01/18 14:35:58;;;;;;;;;;;2.00;99.90;;;;;;5041175;28;20050;-75
2023/01/18 14:38:24;;;;;;;;;;;1.90;99.90;;;;;;5059661;28;20372;-75
2023/01/18 14:40:51;;;;;;;;;;;1.80;99.90;;;;;;5059345;28;19959;-75
2023/01/18 14:43:23;;;;;;;;;;;1.80;99.90;;;;;;5040918;28;20034;-75
2023/01/18 14:45:52;;;;;;;;;;;1.80;99.90;;;;;;5040919;28;19939;-75
2023/01/18 14:48:19;;;;;;;;;;;1.80;99.90;;;;;;5058826;28;19913;-75
2023/01/18 14:50:46;;;;;;;;;;;1.80;99.90;;;;;;5059007;28;19913;-75
2023/01/18 14:53:14;;;;;;;;;;;1.80;99.90;;;;;;5060405;28;19916;-77
2023/01/18 14:55:39;;;;;;;;;;;1.80;99.90;;;;;;5058599;28;20287;-76
2023/01/18 14:58:10;;;;;;;;;;;1.80;99.90;;;;;;5057975;28;19939;-76
2023/01/18 15:00:46;;;;;;;;;;;1.80;99.90;;;;;;5060250;28;19992;-76
2023/01/18 15:03:18;;;;;;;;;;;1.80;99.90;;;;;;5050355;28;19912;-75